sensor_id;sensor_type;location;lat;lon;timestamp;P1;P2;P0
72918;PMS7003;68407;55.694;26.994;2023-03-08T00:03:59;12.3;9.1;6.3
72918;PMS7003;68407;55.694;26.994;2023-03-08T00:09:17;10.9;9.4;6.3
72918;PMS7003;68407;55.694;26.994;2023-03-08T00:13:35;11.2;9.4;6.5
72918;PMS7003;68407;55.694;26.994;2023-03-08T00:18:45;11.7;8.9;6.1
72918;PMS7003;68407;55.694;26.994;2023-03-08T00:24:21;11.9;9.6;6.3
72918;PMS7003;68407;55.694;26.994;2023-03-08T00:28:45;10.7;7.8;5.6
72918;PMS7003;68407;55.694;26.994;2023-03-08T00:34:19;10.3;7.8;5.3
72918;PMS7003;68407;55.694;26.994;2023-03-08T00:39:13;11.3;8.8;5.8
72918;PMS7003;68407;55.694;26.994;2023-03-08T00:43:39;11.1;9.5;7
72918;PMS7003;68407;55.694;26.994;2023-03-08T00:49:21;12.3;9.2;6.2
72918;PMS7003;68407;55.694;26.994;2023-03-08T00:53:47;11.8;9.6;6.7
72918;PMS7003;68407;55.694;26.994;2023-03-08T00:59:19;12.7;10.1;7.4
72918;PMS7003;68407;55.694;26.994;2023-03-08T01:04:13;12.2;9.5;6.9
72918;PMS7003;68407;55.694;26.994;2023-03-08T01:08:33;13.7;10.4;7.2
72918;PMS7003;68407;55.694;26.994;2023-03-08T01:14:21;13.5;11;7.5
72918;PMS7003;68407;55.694;26.994;2023-03-08T01:19:01;10.3;7.6;5
72918;PMS7003;68407;55.694;26.994;2023-03-08T01:24:19;13.1;10.3;6.6
72918;PMS7003;68407;55.694;26.994;2023-03-08T01:29:13;14.4;11.4;7.5
72918;PMS7003;68407;55.694;26.994;2023-03-08T01:33:33;13.5;10.8;7.7
72918;PMS7003;68407;55.694;26.994;2023-03-08T01:39:19;13.4;11;7.9
72918;PMS7003;68407;55.694;26.994;2023-03-08T01:43:59;14.6;12.3;8.4
72918;PMS7003;68407;55.694;26.994;2023-03-08T01:49:22;15.6;11.9;8.5
72918;PMS7003;68407;55.694;26.994;2023-03-08T01:54:14;14.2;11.7;8
72918;PMS7003;68407;55.694;26.994;2023-03-08T01:58:33;15.4;12.4;8.2
72918;PMS7003;68407;55.694;26.994;2023-03-08T02:04:19;14.7;11.9;8
72918;PMS7003;68407;55.694;26.994;2023-03-08T02:08:59;15.5;12.2;8.4
72918;PMS7003;68407;55.694;26.994;2023-03-08T02:14:19;14.3;11.4;7.6
72918;PMS7003;68407;55.694;26.994;2023-03-08T02:19:22;15.7;12.5;9
72918;PMS7003;68407;55.694;26.994;2023-03-08T02:23:33;15.5;11.8;8.2
72918;PMS7003;68407;55.694;26.994;2023-03-08T02:29:17;10.6;8.5;5.9
72918;PMS7003;68407;55.694;26.994;2023-03-08T02:33:59;11.8;9.3;6.6
72918;PMS7003;68407;55.694;26.994;2023-03-08T02:39:05;10.5;9;6.6
72918;PMS7003;68407;55.694;26.994;2023-03-08T02:44:19;8.2;7.2;5.2
72918;PMS7003;68407;55.694;26.994;2023-03-08T02:48:39;5.7;4.4;3.4
72918;PMS7003;68407;55.694;26.994;2023-03-08T02:54:11;3.4;2.4;2
72918;PMS7003;68407;55.694;26.994;2023-03-08T02:58:59;2.3;1.8;1.4
72918;PMS7003;68407;55.694;26.994;2023-03-08T03:04:05;2.2;1.6;1
72918;PMS7003;68407;55.694;26.994;2023-03-08T03:09:19;2.5;1.6;1.2
72918;PMS7003;68407;55.694;26.994;2023-03-08T03:13:45;2.2;1.8;1.3
72918;PMS7003;68407;55.694;26.994;2023-03-08T03:19:17;2.8;1.6;1.3
72918;PMS7003;68407;55.694;26.994;2023-03-08T03:23:59;2.2;1.5;1.2
72918;PMS7003;68407;55.694;26.994;2023-03-08T03:29:03;1.3;0.9;0.8
72918;PMS7003;68407;55.694;26.994;2023-03-08T03:34:19;1.7;0.9;0.7
72918;PMS7003;68407;55.694;26.994;2023-03-08T03:39:07;1;0.7;0.7
72918;PMS7003;68407;55.694;26.994;2023-03-08T03:44:19;1.1;0.8;0.6
72918;PMS7003;68407;55.694;26.994;2023-03-08T03:49:19;1;0.6;0.5
72918;PMS7003;68407;55.694;26.994;2023-03-08T03:54:05;0.9;0.6;0.5
72918;PMS7003;68407;55.694;26.994;2023-03-08T03:59:11;1;0.6;0.4
72918;PMS7003;68407;55.694;26.994;2023-03-08T04:04:17;1;0.6;0.2
72918;PMS7003;68407;55.694;26.994;2023-03-08T04:09:19;0.8;0.4;0.3
72918;PMS7003;68407;55.694;26.994;2023-03-08T04:14:01;0.7;0.3;0.2
72918;PMS7003;68407;55.694;26.994;2023-03-08T04:19:04;0.5;0.1;0.1
72918;PMS7003;68407;55.694;26.994;2023-03-08T04:24:19;0.4;0.2;0.1
72918;PMS7003;68407;55.694;26.994;2023-03-08T04:28:33;0.7;0.2;0.1
72918;PMS7003;68407;55.694;26.994;2023-03-08T04:34:03;1.3;0.1;0.1
72918;PMS7003;68407;55.694;26.994;2023-03-08T04:38:59;0.8;0.1;0
72918;PMS7003;68407;55.694;26.994;2023-03-08T04:43:35;0.5;0.1;0
72918;PMS7003;68407;55.694;26.994;2023-03-08T04:49:19;0.6;0.1;0
72918;PMS7003;68407;55.694;26.994;2023-03-08T04:53:33;0.2;0;0
72918;PMS7003;68407;55.694;26.994;2023-03-08T04:59:21;0.6;0.1;0
72918;PMS7003;68407;55.694;26.994;2023-03-08T05:04:19;0.5;0.2;0.1
72918;PMS7003;68407;55.694;26.994;2023-03-08T05:09:03;0.6;0.2;0.1
72918;PMS7003;68407;55.694;26.994;2023-03-08T05:14:17;0.7;0.1;0.1
72918;PMS7003;68407;55.694;26.994;2023-03-08T05:18:39;0.7;0;0
72918;PMS7003;68407;55.694;26.994;2023-03-08T05:24:19;0.6;0.1;0
72918;PMS7003;68407;55.694;26.994;2023-03-08T05:29:11;0.4;0.1;0.1
72918;PMS7003;68407;55.694;26.994;2023-03-08T05:34:05;0.3;0.3;0
72918;PMS7003;68407;55.694;26.994;2023-03-08T05:39:21;0.4;0.1;0.1
72918;PMS7003;68407;55.694;26.994;2023-03-08T05:43:47;0.5;0.3;0.1
72918;PMS7003;68407;55.694;26.994;2023-03-08T05:49:19;0.7;0.3;0.1
72918;PMS7003;68407;55.694;26.994;2023-03-08T05:53:33;1;0.1;0.1
72918;PMS7003;68407;55.694;26.994;2023-03-08T05:59:05;0.7;0.3;0.1
72918;PMS7003;68407;55.694;26.994;2023-03-08T06:04:19;0.4;0.3;0.1
72918;PMS7003;68407;55.694;26.994;2023-03-08T06:08:53;0.6;0.3;0.3
72918;PMS7003;68407;55.694;26.994;2023-03-08T06:14:09;0.5;0.3;0.2
72918;PMS7003;68407;55.694;26.994;2023-03-08T06:19:07;0.6;0.2;0.2
72918;PMS7003;68407;55.694;26.994;2023-03-08T06:24:03;0.5;0.2;0.2
72918;PMS7003;68407;55.694;26.994;2023-03-08T06:29:11;0.8;0.4;0.3
72918;PMS7003;68407;55.694;26.994;2023-03-08T06:33:33;1.3;0.4;0.3
72918;PMS7003;68407;55.694;26.994;2023-03-08T06:39:19;0.5;0.5;0.3
72918;PMS7003;68407;55.694;26.994;2023-03-08T06:43:57;0.9;0.6;0.4
72918;PMS7003;68407;55.694;26.994;2023-03-08T06:49:05;1;0.5;0.4
72918;PMS7003;68407;55.694;26.994;2023-03-08T06:54:17;0.9;0.5;0.2
72918;PMS7003;68407;55.694;26.994;2023-03-08T06:58:34;0.5;0.3;0.2
72918;PMS7003;68407;55.694;26.994;2023-03-08T07:04:19;1.3;0.5;0.3
72918;PMS7003;68407;55.694;26.994;2023-03-08T07:08:57;1.2;1;0.8
72918;PMS7003;68407;55.694;26.994;2023-03-08T07:14:05;1.8;0.8;0.6
72918;PMS7003;68407;55.694;26.994;2023-03-08T07:19:19;1.2;0.8;0.7
72918;PMS7003;68407;55.694;26.994;2023-03-08T07:23:33;1.2;0.7;0.5
72918;PMS7003;68407;55.694;26.994;2023-03-08T07:29:19;1.3;0.9;0.6
72918;PMS7003;68407;55.694;26.994;2023-03-08T07:33:59;1.4;0.9;0.7
72918;PMS7003;68407;55.694;26.994;2023-03-08T07:39:03;1;0.4;0.2
72918;PMS7003;68407;55.694;26.994;2023-03-08T07:43:57;1.1;0.9;0.5
72918;PMS7003;68407;55.694;26.994;2023-03-08T07:48:47;0.9;0.7;0.4
72918;PMS7003;68407;55.694;26.994;2023-03-08T07:54:19;1;0.3;0.2
72918;PMS7003;68407;55.694;26.994;2023-03-08T07:58:48;1;0.7;0.5
72918;PMS7003;68407;55.694;26.994;2023-03-08T08:04:05;1.3;0.7;0.4
72918;PMS7003;68407;55.694;26.994;2023-03-08T08:09:17;0.9;0.6;0.5
72918;PMS7003;68407;55.694;26.994;2023-03-08T08:13:33;1.1;0.4;0.2
72918;PMS7003;68407;55.694;26.994;2023-03-08T08:19:09;1.3;0.6;0.3
72918;PMS7003;68407;55.694;26.994;2023-03-08T08:23:46;0.8;0.4;0.3
72918;PMS7003;68407;55.694;26.994;2023-03-08T08:29:05;0.6;0.5;0.3
72918;PMS7003;68407;55.694;26.994;2023-03-08T08:34:19;1;0.4;0.2
72918;PMS7003;68407;55.694;26.994;2023-03-08T08:38:33;0.6;0.3;0.1
72918;PMS7003;68407;55.694;26.994;2023-03-08T08:44:17;1.4;0.7;0.5
72918;PMS7003;68407;55.694;26.994;2023-03-08T08:49:11;0.8;0.5;0.4
72918;PMS7003;68407;55.694;26.994;2023-03-08T08:53:55;0.8;0.3;0.2
72918;PMS7003;68407;55.694;26.994;2023-03-08T08:59:18;1;0.4;0.3
72918;PMS7003;68407;55.694;26.994;2023-03-08T09:04:01;1.1;0.4;0.2
72918;PMS7003;68407;55.694;26.994;2023-03-08T09:09:19;0.7;0.5;0.2
72918;PMS7003;68407;55.694;26.994;2023-03-08T09:13:34;0.8;0.5;0.4
72918;PMS7003;68407;55.694;26.994;2023-03-08T09:18:35;0.6;0.4;0.3
72918;PMS7003;68407;55.694;26.994;2023-03-08T09:23:35;1.7;0.8;0.7
72918;PMS7003;68407;55.694;26.994;2023-03-08T09:28:33;1;0.5;0.3
72918;PMS7003;68407;55.694;26.994;2023-03-08T09:34:19;1;0.3;0.2
72918;PMS7003;68407;55.694;26.994;2023-03-08T09:38:33;0.9;0.3;0.2
72918;PMS7003;68407;55.694;26.994;2023-03-08T09:43:38;1;0.1;0.1
72918;PMS7003;68407;55.694;26.994;2023-03-08T09:49:22;0.7;0.4;0.3
72918;PMS7003;68407;55.694;26.994;2023-03-08T09:53:35;1.1;0.4;0.2
72918;PMS7003;68407;55.694;26.994;2023-03-08T09:59:12;0.7;0.4;0.3
72918;PMS7003;68407;55.694;26.994;2023-03-08T10:04:12;0.5;0.2;0.1
72918;PMS7003;68407;55.694;26.994;2023-03-08T10:09:22;0.2;0.2;0
72918;PMS7003;68407;55.694;26.994;2023-03-08T10:14:11;0.8;0.2;0.1
72918;PMS7003;68407;55.694;26.994;2023-03-08T10:18:34;0.5;0.4;0.2
72918;PMS7003;68407;55.694;26.994;2023-03-08T10:23:58;1;0.5;0.4
72918;PMS7003;68407;55.694;26.994;2023-03-08T10:29:08;0.9;0.4;0.2
72918;PMS7003;68407;55.694;26.994;2023-03-08T10:34:09;0.9;0.4;0.3
72918;PMS7003;68407;55.694;26.994;2023-03-08T10:39:08;0.7;0.3;0.1
72918;PMS7003;68407;55.694;26.994;2023-03-08T10:43:49;0.7;0.3;0.1
72918;PMS7003;68407;55.694;26.994;2023-03-08T10:49:05;1.2;0.1;0.1
72918;PMS7003;68407;55.694;26.994;2023-03-08T10:54:19;0.5;0.4;0.3
72918;PMS7003;68407;55.694;26.994;2023-03-08T10:59:14;0.8;0.1;0.1
72918;PMS7003;68407;55.694;26.994;2023-03-08T11:03:57;0.4;0.3;0.2
72918;PMS7003;68407;55.694;26.994;2023-03-08T11:08:34;1;0.4;0.3
72918;PMS7003;68407;55.694;26.994;2023-03-08T11:13:34;0.6;0.4;0.3
72918;PMS7003;68407;55.694;26.994;2023-03-08T11:19:53;0.8;0.4;0.2
72918;PMS7003;68407;55.694;26.994;2023-03-08T11:24:22;0.6;0.2;0.1
72918;PMS7003;68407;55.694;26.994;2023-03-08T11:29:09;0.4;0.1;0.1
72918;PMS7003;68407;55.694;26.994;2023-03-08T11:33:37;0.8;0.4;0.3
72918;PMS7003;68407;55.694;26.994;2023-03-08T11:38:56;0.4;0.1;0.1
72918;PMS7003;68407;55.694;26.994;2023-03-08T11:44:08;0.8;0.3;0.2
72918;PMS7003;68407;55.694;26.994;2023-03-08T11:49:23;0.7;0.2;0.1
72918;PMS7003;68407;55.694;26.994;2023-03-08T11:54:10;0.7;0.2;0.1
72918;PMS7003;68407;55.694;26.994;2023-03-08T11:58:44;2.2;1.6;1
72918;PMS7003;68407;55.694;26.994;2023-03-08T12:03:46;3.4;2.5;1.9
72918;PMS7003;68407;55.694;26.994;2023-03-08T12:09:11;4.4;2.5;1.7
72918;PMS7003;68407;55.694;26.994;2023-03-08T12:14:20;1.2;0.4;0.2
72918;PMS7003;68407;55.694;26.994;2023-03-08T12:19:10;0.5;0.1;0.1
72918;PMS7003;68407;55.694;26.994;2023-03-08T12:23:45;0.4;0.1;0
72918;PMS7003;68407;55.694;26.994;2023-03-08T12:28:56;0.4;0.2;0.2
72918;PMS7003;68407;55.694;26.994;2023-03-08T12:34:12;0.5;0.2;0.1
72918;PMS7003;68407;55.694;26.994;2023-03-08T12:39:24;0.6;0.1;0.1
72918;PMS7003;68407;55.694;26.994;2023-03-08T12:43:57;0.9;0.3;0.1
72918;PMS7003;68407;55.694;26.994;2023-03-08T12:48:46;0.4;0.2;0.2
72918;PMS7003;68407;55.694;26.994;2023-03-08T12:53:45;0.7;0;0
72918;PMS7003;68407;55.694;26.994;2023-03-08T12:59:24;0.6;0.1;0.1
72918;PMS7003;68407;55.694;26.994;2023-03-08T13:04:25;0.5;0;0
72918;PMS7003;68407;55.694;26.994;2023-03-08T13:09:11;0.2;0;0
72918;PMS7003;68407;55.694;26.994;2023-03-08T13:13:37;0.3;0.2;0
72918;PMS7003;68407;55.694;26.994;2023-03-08T13:19:15;0.4;0.1;0
72918;PMS7003;68407;55.694;26.994;2023-03-08T13:24:10;0.2;0.1;0.1
72918;PMS7003;68407;55.694;26.994;2023-03-08T13:29:19;0.3;0.3;0.2
72918;PMS7003;68407;55.694;26.994;2023-03-08T13:34:18;0.6;0.1;0.1
72918;PMS7003;68407;55.694;26.994;2023-03-08T13:38:35;0.9;0.1;0
72918;PMS7003;68407;55.694;26.994;2023-03-08T13:43:59;0.5;0.3;0.1
72918;PMS7003;68407;55.694;26.994;2023-03-08T13:49:09;0.8;0.2;0.1
72918;PMS7003;68407;55.694;26.994;2023-03-08T13:54:20;0.5;0.2;0.1
72918;PMS7003;68407;55.694;26.994;2023-03-08T13:58:49;0.5;0.1;0
72918;PMS7003;68407;55.694;26.994;2023-03-08T14:03:48;0.4;0.1;0.1
72918;PMS7003;68407;55.694;26.994;2023-03-08T14:08:58;0.2;0;0
72918;PMS7003;68407;55.694;26.994;2023-03-08T14:13:34;1;0.2;0.1
72918;PMS7003;68407;55.694;26.994;2023-03-08T14:19:19;0.1;0.1;0
72918;PMS7003;68407;55.694;26.994;2023-03-08T14:24:14;0.5;0.2;0.1
72918;PMS7003;68407;55.694;26.994;2023-03-08T14:28:34;0.4;0;0
72918;PMS7003;68407;55.694;26.994;2023-03-08T14:33:56;0.3;0.2;0.2
72918;PMS7003;68407;55.694;26.994;2023-03-08T14:39:17;0.6;0.1;0
72918;PMS7003;68407;55.694;26.994;2023-03-08T14:44:20;0.4;0;0
72918;PMS7003;68407;55.694;26.994;2023-03-08T14:49:16;0.3;0.3;0.1
72918;PMS7003;68407;55.694;26.994;2023-03-08T14:53:34;0.4;0;0
72918;PMS7003;68407;55.694;26.994;2023-03-08T14:58:48;0.1;0.1;0.1
72918;PMS7003;68407;55.694;26.994;2023-03-08T15:03:45;0.5;0.2;0
72918;PMS7003;68407;55.694;26.994;2023-03-08T15:09:20;0.6;0;0
72918;PMS7003;68407;55.694;26.994;2023-03-08T15:14:07;0.2;0;0
72918;PMS7003;68407;55.694;26.994;2023-03-08T15:18:33;0.8;0.1;0
72918;PMS7003;68407;55.694;26.994;2023-03-08T15:23:57;0.3;0.1;0.1
72918;PMS7003;68407;55.694;26.994;2023-03-08T15:28:56;0.3;0;0
72918;PMS7003;68407;55.694;26.994;2023-03-08T15:34:20;0.4;0;0
72918;PMS7003;68407;55.694;26.994;2023-03-08T15:38:35;0.6;0.3;0.1
72918;PMS7003;68407;55.694;26.994;2023-03-08T15:43:33;0.5;0.2;0.1
72918;PMS7003;68407;55.694;26.994;2023-03-08T15:48:43;0.3;0.3;0.2
72918;PMS7003;68407;55.694;26.994;2023-03-08T15:53:45;0.5;0.3;0.2
72918;PMS7003;68407;55.694;26.994;2023-03-08T15:59:19;0.2;0.1;0.1
72918;PMS7003;68407;55.694;26.994;2023-03-08T16:03:54;0.6;0.3;0.2
72918;PMS7003;68407;55.694;26.994;2023-03-08T16:08:33;0.5;0.1;0.1
72918;PMS7003;68407;55.694;26.994;2023-03-08T16:13:57;1.1;0.2;0.2
72918;PMS7003;68407;55.694;26.994;2023-03-08T16:18:47;0.4;0.2;0
72918;PMS7003;68407;55.694;26.994;2023-03-08T16:24:17;0.4;0.1;0.1
72918;PMS7003;68407;55.694;26.994;2023-03-08T16:29:20;0.7;0.3;0.2
72918;PMS7003;68407;55.694;26.994;2023-03-08T16:33:33;1.1;0.2;0.2
72918;PMS7003;68407;55.694;26.994;2023-03-08T16:38:47;0.6;0.4;0.3
72918;PMS7003;68407;55.694;26.994;2023-03-08T16:43:35;0.5;0.4;0.2
72918;PMS7003;68407;55.694;26.994;2023-03-08T16:49:18;0.8;0.4;0.1
72918;PMS7003;68407;55.694;26.994;2023-03-08T16:53:53;0.4;0.1;0.1
72918;PMS7003;68407;55.694;26.994;2023-03-08T16:58:33;0.8;0.4;0.2
72918;PMS7003;68407;55.694;26.994;2023-03-08T17:04:11;0.5;0.3;0.1
72918;PMS7003;68407;55.694;26.994;2023-03-08T17:08:45;0.4;0.1;0
72918;PMS7003;68407;55.694;26.994;2023-03-08T17:14:19;0.3;0;0
72918;PMS7003;68407;55.694;26.994;2023-03-08T17:19:19;0.2;0;0
72918;PMS7003;68407;55.694;26.994;2023-03-08T17:23:34;0.1;0.1;0.1
72918;PMS7003;68407;55.694;26.994;2023-03-08T17:28:44;0.3;0;0
72918;PMS7003;68407;55.694;26.994;2023-03-08T17:33:34;0.4;0;0
72918;PMS7003;68407;55.694;26.994;2023-03-08T17:39:19;0.3;0;0
72918;PMS7003;68407;55.694;26.994;2023-03-08T17:43:48;0.3;0;0
72918;PMS7003;68407;55.694;26.994;2023-03-08T17:48:34;0.1;0;0
72918;PMS7003;68407;55.694;26.994;2023-03-08T17:53:58;0.4;0;0
72918;PMS7003;68407;55.694;26.994;2023-03-08T17:58:46;0.2;0;0
72918;PMS7003;68407;55.694;26.994;2023-03-08T18:04:08;0;0;0
72918;PMS7003;68407;55.694;26.994;2023-03-08T18:09:19;0.3;0;0
72918;PMS7003;68407;55.694;26.994;2023-03-08T18:13:35;0.3;0;0
72918;PMS7003;68407;55.694;26.994;2023-03-08T18:18:58;0.5;0;0
72918;PMS7003;68407;55.694;26.994;2023-03-08T18:23:33;0.4;0;0
72918;PMS7003;68407;55.694;26.994;2023-03-08T18:29:07;0.3;0;0
72918;PMS7003;68407;55.694;26.994;2023-03-08T18:34:14;0.1;0;0
72918;PMS7003;68407;55.694;26.994;2023-03-08T18:39:10;1.3;0;0
72918;PMS7003;68407;55.694;26.994;2023-03-08T18:43:48;0.1;0;0
72918;PMS7003;68407;55.694;26.994;2023-03-08T18:49:02;0.1;0;0
72918;PMS7003;68407;55.694;26.994;2023-03-08T18:54:06;0.4;0;0
72918;PMS7003;68407;55.694;26.994;2023-03-08T18:59:20;0.3;0.1;0
72918;PMS7003;68407;55.694;26.994;2023-03-08T19:04:02;0.2;0;0
72918;PMS7003;68407;55.694;26.994;2023-03-08T19:08:56;0.2;0;0
72918;PMS7003;68407;55.694;26.994;2023-03-08T19:13:34;0.3;0;0
72918;PMS7003;68407;55.694;26.994;2023-03-08T19:19:20;0.1;0;0
72918;PMS7003;68407;55.694;26.994;2023-03-08T19:24:20;0.3;0;0
72918;PMS7003;68407;55.694;26.994;2023-03-08T19:29:07;0.2;0;0
72918;PMS7003;68407;55.694;26.994;2023-03-08T19:33:58;0.4;0;0
72918;PMS7003;68407;55.694;26.994;2023-03-08T19:38:34;0.1;0;0
72918;PMS7003;68407;55.694;26.994;2023-03-08T19:44:10;0;0;0
72918;PMS7003;68407;55.694;26.994;2023-03-08T19:49:18;0.1;0;0
72918;PMS7003;68407;55.694;26.994;2023-03-08T19:54:06;0.1;0;0
72918;PMS7003;68407;55.694;26.994;2023-03-08T19:58:48;0.1;0;0
72918;PMS7003;68407;55.694;26.994;2023-03-08T20:03:34;0.3;0;0
72918;PMS7003;68407;55.694;26.994;2023-03-08T20:09:06;0.1;0;0
72918;PMS7003;68407;55.694;26.994;2023-03-08T20:14:20;0.3;0.1;0
72918;PMS7003;68407;55.694;26.994;2023-03-08T20:19:06;0.2;0;0
72918;PMS7003;68407;55.694;26.994;2023-03-08T20:23:34;0.1;0;0
72918;PMS7003;68407;55.694;26.994;2023-03-08T20:28:44;0.2;0;0
72918;PMS7003;68407;55.694;26.994;2023-03-08T20:34:08;0.1;0;0
72918;PMS7003;68407;55.694;26.994;2023-03-08T20:39:20;0.1;0;0
72918;PMS7003;68407;55.694;26.994;2023-03-08T20:43:56;0.3;0;0
72918;PMS7003;68407;55.694;26.994;2023-03-08T20:48:34;0.1;0;0
72918;PMS7003;68407;55.694;26.994;2023-03-08T20:53:34;0.1;0;0
72918;PMS7003;68407;55.694;26.994;2023-03-08T20:59:08;0.1;0;0
72918;PMS7003;68407;55.694;26.994;2023-03-08T21:04:18;0.6;0;0
72918;PMS7003;68407;55.694;26.994;2023-03-08T21:09:18;0.2;0;0
72918;PMS7003;68407;55.694;26.994;2023-03-08T21:13:48;0.1;0;0
72918;PMS7003;68407;55.694;26.994;2023-03-08T21:18:34;0.3;0;0
72918;PMS7003;68407;55.694;26.994;2023-03-08T21:24:09;0;0;0
72918;PMS7003;68407;55.694;26.994;2023-03-08T21:29:20;0.2;0;0
72918;PMS7003;68407;55.694;26.994;2023-03-08T21:34:08;0;0;0
72918;PMS7003;68407;55.694;26.994;2023-03-08T21:38:34;0;0;0
72918;PMS7003;68407;55.694;26.994;2023-03-08T21:43:48;0.1;0;0
72918;PMS7003;68407;55.694;26.994;2023-03-08T21:48:58;0.2;0;0
72918;PMS7003;68407;55.694;26.994;2023-03-08T21:54:18;0.4;0;0
72918;PMS7003;68407;55.694;26.994;2023-03-08T21:58:56;0.2;0;0
72918;PMS7003;68407;55.694;26.994;2023-03-08T22:03:58;0.4;0;0
72918;PMS7003;68407;55.694;26.994;2023-03-08T22:08:34;0.2;0;0
72918;PMS7003;68407;55.694;26.994;2023-03-08T22:14:20;0.2;0;0
72918;PMS7003;68407;55.694;26.994;2023-03-08T22:19:20;0.1;0;0
72918;PMS7003;68407;55.694;26.994;2023-03-08T22:24:08;0.1;0;0
72918;PMS7003;68407;55.694;26.994;2023-03-08T22:28:44;0;0;0
72918;PMS7003;68407;55.694;26.994;2023-03-08T22:33:42;0.3;0;0
72918;PMS7003;68407;55.694;26.994;2023-03-08T22:38:58;0;0;0
72918;PMS7003;68407;55.694;26.994;2023-03-08T22:44:20;0.1;0;0
72918;PMS7003;68407;55.694;26.994;2023-03-08T22:49:08;0.5;0;0
72918;PMS7003;68407;55.694;26.994;2023-03-08T22:53:34;0.3;0;0
72918;PMS7003;68407;55.694;26.994;2023-03-08T22:58:44;0;0;0
72918;PMS7003;68407;55.694;26.994;2023-03-08T23:03:58;0;0;0
72918;PMS7003;68407;55.694;26.994;2023-03-08T23:09:18;0.3;0;0
72918;PMS7003;68407;55.694;26.994;2023-03-08T23:14:08;0.1;0;0
72918;PMS7003;68407;55.694;26.994;2023-03-08T23:18:58;0.5;0;0
72918;PMS7003;68407;55.694;26.994;2023-03-08T23:23:58;0.3;0.1;0.1
72918;PMS7003;68407;55.694;26.994;2023-03-08T23:28:58;0.2;0;0
72918;PMS7003;68407;55.694;26.994;2023-03-08T23:34:20;0.2;0;0
72918;PMS7003;68407;55.694;26.994;2023-03-08T23:39:06;0.3;0;0
72918;PMS7003;68407;55.694;26.994;2023-03-08T23:43:59;0.4;0;0
72918;PMS7003;68407;55.694;26.994;2023-03-08T23:48:47;0.5;0;0
72918;PMS7003;68407;55.694;26.994;2023-03-08T23:53:58;0.1;0;0
72918;PMS7003;68407;55.694;26.994;2023-03-08T23:59:20;0.5;0;0
